sensor_id;sensor_type;location;lat;lon;timestamp;P1;durP1;ratioP1;P2;durP2;ratioP2
12181;SDS011;6154;51.550;12.138;2023-11-21T00:00:33;4.10;;;1.65;;
12181;SDS011;6154;51.550;12.138;2023-11-21T00:03:02;3.40;;;1.15;;
12181;SDS011;6154;51.550;12.138;2023-11-21T00:05:31;1.90;;;1.15;;
12181;SDS011;6154;51.550;12.138;2023-11-21T00:07:59;1.73;;;0.93;;
12181;SDS011;6154;51.550;12.138;2023-11-21T00:10:29;2.37;;;1.30;;
12181;SDS011;6154;51.550;12.138;2023-11-21T00:12:57;2.20;;;1.40;;
12181;SDS011;6154;51.550;12.138;2023-11-21T00:15:25;2.33;;;1.33;;
12181;SDS011;6154;51.550;12.138;2023-11-21T00:17:54;2.03;;;1.40;;
12181;SDS011;6154;51.550;12.138;2023-11-21T00:20:23;3.22;;;1.33;;
12181;SDS011;6154;51.550;12.138;2023-11-21T00:22:51;3.53;;;1.65;;
12181;SDS011;6154;51.550;12.138;2023-11-21T00:25:20;5.68;;;1.48;;
12181;SDS011;6154;51.550;12.138;2023-11-21T00:27:48;1.42;;;1.02;;
12181;SDS011;6154;51.550;12.138;2023-11-21T00:30:16;1.92;;;1.30;;
12181;SDS011;6154;51.550;12.138;2023-11-21T00:32:44;3.47;;;1.67;;
12181;SDS011;6154;51.550;12.138;2023-11-21T00:35:13;2.90;;;1.23;;
12181;SDS011;6154;51.550;12.138;2023-11-21T00:37:42;3.78;;;1.20;;
12181;SDS011;6154;51.550;12.138;2023-11-21T00:40:11;2.85;;;1.25;;
12181;SDS011;6154;51.550;12.138;2023-11-21T00:42:42;3.22;;;1.40;;
12181;SDS011;6154;51.550;12.138;2023-11-21T00:45:10;2.83;;;1.25;;
12181;SDS011;6154;51.550;12.138;2023-11-21T00:47:39;3.45;;;1.85;;
12181;SDS011;6154;51.550;12.138;2023-11-21T00:50:07;2.33;;;1.35;;
12181;SDS011;6154;51.550;12.138;2023-11-21T00:52:36;3.83;;;1.48;;
12181;SDS011;6154;51.550;12.138;2023-11-21T00:55:06;2.75;;;1.45;;
12181;SDS011;6154;51.550;12.138;2023-11-21T00:57:35;2.08;;;1.27;;
12181;SDS011;6154;51.550;12.138;2023-11-21T01:00:05;2.15;;;1.15;;
12181;SDS011;6154;51.550;12.138;2023-11-21T01:02:43;3.42;;;1.52;;
12181;SDS011;6154;51.550;12.138;2023-11-21T01:05:12;1.58;;;1.42;;
12181;SDS011;6154;51.550;12.138;2023-11-21T01:07:41;2.42;;;1.25;;
12181;SDS011;6154;51.550;12.138;2023-11-21T01:10:31;5.32;;;1.20;;
12181;SDS011;6154;51.550;12.138;2023-11-21T01:13:21;4.25;;;1.67;;
12181;SDS011;6154;51.550;12.138;2023-11-21T01:15:49;3.70;;;1.37;;
12181;SDS011;6154;51.550;12.138;2023-11-21T01:18:19;6.90;;;1.62;;
12181;SDS011;6154;51.550;12.138;2023-11-21T01:20:48;3.78;;;1.52;;
12181;SDS011;6154;51.550;12.138;2023-11-21T01:23:28;2.28;;;1.00;;
12181;SDS011;6154;51.550;12.138;2023-11-21T01:25:59;1.33;;;0.90;;
12181;SDS011;6154;51.550;12.138;2023-11-21T01:28:29;1.80;;;1.27;;
12181;SDS011;6154;51.550;12.138;2023-11-21T01:31:01;4.00;;;1.55;;
12181;SDS011;6154;51.550;12.138;2023-11-21T01:33:30;1.87;;;1.20;;
12181;SDS011;6154;51.550;12.138;2023-11-21T01:35:58;2.45;;;1.40;;
12181;SDS011;6154;51.550;12.138;2023-11-21T01:38:27;3.30;;;1.48;;
12181;SDS011;6154;51.550;12.138;2023-11-21T01:40:55;3.22;;;1.55;;
12181;SDS011;6154;51.550;12.138;2023-11-21T01:43:31;2.30;;;1.48;;
12181;SDS011;6154;51.550;12.138;2023-11-21T01:45:59;2.08;;;1.70;;
12181;SDS011;6154;51.550;12.138;2023-11-21T01:48:28;2.15;;;1.55;;
12181;SDS011;6154;51.550;12.138;2023-11-21T01:50:56;4.85;;;1.70;;
12181;SDS011;6154;51.550;12.138;2023-11-21T01:53:25;1.67;;;1.25;;
12181;SDS011;6154;51.550;12.138;2023-11-21T01:55:55;1.80;;;1.35;;
12181;SDS011;6154;51.550;12.138;2023-11-21T01:58:25;1.65;;;1.40;;
12181;SDS011;6154;51.550;12.138;2023-11-21T02:00:55;5.12;;;1.83;;
12181;SDS011;6154;51.550;12.138;2023-11-21T02:03:31;1.70;;;1.20;;
12181;SDS011;6154;51.550;12.138;2023-11-21T02:05:59;2.75;;;1.67;;
12181;SDS011;6154;51.550;12.138;2023-11-21T02:08:47;3.15;;;2.00;;
12181;SDS011;6154;51.550;12.138;2023-11-21T02:11:15;2.62;;;1.52;;
12181;SDS011;6154;51.550;12.138;2023-11-21T02:14:03;2.15;;;1.62;;
12181;SDS011;6154;51.550;12.138;2023-11-21T02:16:55;3.83;;;1.75;;
12181;SDS011;6154;51.550;12.138;2023-11-21T02:19:24;2.67;;;1.75;;
12181;SDS011;6154;51.550;12.138;2023-11-21T02:21:53;2.25;;;1.40;;
12181;SDS011;6154;51.550;12.138;2023-11-21T02:24:23;2.08;;;1.55;;
12181;SDS011;6154;51.550;12.138;2023-11-21T02:26:52;3.15;;;1.55;;
12181;SDS011;6154;51.550;12.138;2023-11-21T02:29:20;1.37;;;1.27;;
12181;SDS011;6154;51.550;12.138;2023-11-21T02:31:54;2.95;;;1.77;;
12181;SDS011;6154;51.550;12.138;2023-11-21T02:34:23;2.87;;;1.67;;
12181;SDS011;6154;51.550;12.138;2023-11-21T02:36:52;2.70;;;1.58;;
12181;SDS011;6154;51.550;12.138;2023-11-21T02:39:22;4.25;;;1.80;;
12181;SDS011;6154;51.550;12.138;2023-11-21T02:41:51;2.78;;;1.52;;
12181;SDS011;6154;51.550;12.138;2023-11-21T02:44:20;6.32;;;1.48;;
12181;SDS011;6154;51.550;12.138;2023-11-21T02:46:49;2.78;;;1.60;;
12181;SDS011;6154;51.550;12.138;2023-11-21T02:49:18;2.70;;;1.55;;
12181;SDS011;6154;51.550;12.138;2023-11-21T02:51:46;3.55;;;2.22;;
12181;SDS011;6154;51.550;12.138;2023-11-21T02:54:14;3.60;;;1.60;;
12181;SDS011;6154;51.550;12.138;2023-11-21T02:56:47;2.45;;;1.60;;
12181;SDS011;6154;51.550;12.138;2023-11-21T02:59:16;5.75;;;2.65;;
12181;SDS011;6154;51.550;12.138;2023-11-21T03:01:44;2.83;;;1.42;;
12181;SDS011;6154;51.550;12.138;2023-11-21T03:04:13;6.72;;;2.33;;
12181;SDS011;6154;51.550;12.138;2023-11-21T03:06:45;2.58;;;1.95;;
12181;SDS011;6154;51.550;12.138;2023-11-21T03:09:14;4.05;;;1.48;;
12181;SDS011;6154;51.550;12.138;2023-11-21T03:11:43;2.30;;;1.55;;
12181;SDS011;6154;51.550;12.138;2023-11-21T03:14:12;4.60;;;2.03;;
12181;SDS011;6154;51.550;12.138;2023-11-21T03:16:41;5.28;;;1.73;;
12181;SDS011;6154;51.550;12.138;2023-11-21T03:19:12;3.10;;;1.50;;
12181;SDS011;6154;51.550;12.138;2023-11-21T03:21:41;3.28;;;1.52;;
12181;SDS011;6154;51.550;12.138;2023-11-21T03:24:09;2.42;;;1.45;;
12181;SDS011;6154;51.550;12.138;2023-11-21T03:26:38;1.87;;;1.37;;
12181;SDS011;6154;51.550;12.138;2023-11-21T03:29:06;3.87;;;2.25;;
12181;SDS011;6154;51.550;12.138;2023-11-21T03:31:35;3.50;;;2.05;;
12181;SDS011;6154;51.550;12.138;2023-11-21T03:34:05;2.80;;;2.10;;
12181;SDS011;6154;51.550;12.138;2023-11-21T03:36:33;1.77;;;1.45;;
12181;SDS011;6154;51.550;12.138;2023-11-21T03:39:01;4.40;;;1.90;;
12181;SDS011;6154;51.550;12.138;2023-11-21T03:41:29;2.97;;;1.75;;
12181;SDS011;6154;51.550;12.138;2023-11-21T03:43:57;4.72;;;2.15;;
12181;SDS011;6154;51.550;12.138;2023-11-21T03:46:25;2.87;;;1.95;;
12181;SDS011;6154;51.550;12.138;2023-11-21T03:48:55;2.20;;;1.77;;
12181;SDS011;6154;51.550;12.138;2023-11-21T03:51:23;4.05;;;2.35;;
12181;SDS011;6154;51.550;12.138;2023-11-21T03:53:51;6.50;;;2.08;;
12181;SDS011;6154;51.550;12.138;2023-11-21T03:56:20;3.92;;;1.70;;
12181;SDS011;6154;51.550;12.138;2023-11-21T03:58:49;4.15;;;2.42;;
12181;SDS011;6154;51.550;12.138;2023-11-21T04:01:20;3.53;;;1.60;;
12181;SDS011;6154;51.550;12.138;2023-11-21T04:03:50;3.62;;;2.03;;
12181;SDS011;6154;51.550;12.138;2023-11-21T04:06:19;3.05;;;1.95;;
12181;SDS011;6154;51.550;12.138;2023-11-21T04:08:48;4.53;;;1.92;;
12181;SDS011;6154;51.550;12.138;2023-11-21T04:11:16;3.45;;;2.05;;
12181;SDS011;6154;51.550;12.138;2023-11-21T04:13:44;3.80;;;2.10;;
12181;SDS011;6154;51.550;12.138;2023-11-21T04:16:13;3.65;;;2.22;;
12181;SDS011;6154;51.550;12.138;2023-11-21T04:18:42;3.40;;;2.30;;
12181;SDS011;6154;51.550;12.138;2023-11-21T04:21:10;2.67;;;1.87;;
12181;SDS011;6154;51.550;12.138;2023-11-21T04:23:39;4.60;;;2.03;;
12181;SDS011;6154;51.550;12.138;2023-11-21T04:26:08;5.45;;;2.10;;
12181;SDS011;6154;51.550;12.138;2023-11-21T04:28:36;3.33;;;1.87;;
12181;SDS011;6154;51.550;12.138;2023-11-21T04:31:04;3.37;;;1.80;;
12181;SDS011;6154;51.550;12.138;2023-11-21T04:33:32;5.35;;;2.33;;
12181;SDS011;6154;51.550;12.138;2023-11-21T04:36:00;3.87;;;2.08;;
12181;SDS011;6154;51.550;12.138;2023-11-21T04:38:28;3.25;;;2.12;;
12181;SDS011;6154;51.550;12.138;2023-11-21T04:40:58;6.82;;;1.87;;
12181;SDS011;6154;51.550;12.138;2023-11-21T04:43:29;2.40;;;1.73;;
12181;SDS011;6154;51.550;12.138;2023-11-21T04:45:57;3.75;;;2.25;;
12181;SDS011;6154;51.550;12.138;2023-11-21T04:48:26;11.60;;;2.60;;
12181;SDS011;6154;51.550;12.138;2023-11-21T04:50:54;3.35;;;1.73;;
12181;SDS011;6154;51.550;12.138;2023-11-21T04:53:23;3.40;;;2.17;;
12181;SDS011;6154;51.550;12.138;2023-11-21T04:55:51;3.92;;;2.35;;
12181;SDS011;6154;51.550;12.138;2023-11-21T04:58:20;7.05;;;2.05;;
12181;SDS011;6154;51.550;12.138;2023-11-21T05:00:49;3.65;;;2.12;;
12181;SDS011;6154;51.550;12.138;2023-11-21T05:03:17;8.75;;;2.22;;
12181;SDS011;6154;51.550;12.138;2023-11-21T05:05:45;4.45;;;2.40;;
12181;SDS011;6154;51.550;12.138;2023-11-21T05:08:14;4.05;;;2.72;;
12181;SDS011;6154;51.550;12.138;2023-11-21T05:10:42;2.25;;;1.55;;
12181;SDS011;6154;51.550;12.138;2023-11-21T05:13:11;4.10;;;2.30;;
12181;SDS011;6154;51.550;12.138;2023-11-21T05:15:40;3.67;;;2.22;;
12181;SDS011;6154;51.550;12.138;2023-11-21T05:18:09;5.75;;;2.85;;
12181;SDS011;6154;51.550;12.138;2023-11-21T05:20:37;4.43;;;2.28;;
12181;SDS011;6154;51.550;12.138;2023-11-21T05:23:06;5.30;;;2.42;;
12181;SDS011;6154;51.550;12.138;2023-11-21T05:25:34;3.08;;;2.28;;
12181;SDS011;6154;51.550;12.138;2023-11-21T05:28:07;5.90;;;2.25;;
12181;SDS011;6154;51.550;12.138;2023-11-21T05:30:35;3.83;;;2.40;;
12181;SDS011;6154;51.550;12.138;2023-11-21T05:33:04;6.53;;;2.97;;
12181;SDS011;6154;51.550;12.138;2023-11-21T05:35:32;4.93;;;1.85;;
12181;SDS011;6154;51.550;12.138;2023-11-21T05:38:00;4.32;;;2.40;;
12181;SDS011;6154;51.550;12.138;2023-11-21T05:40:28;3.22;;;2.05;;
12181;SDS011;6154;51.550;12.138;2023-11-21T05:42:57;3.37;;;2.35;;
12181;SDS011;6154;51.550;12.138;2023-11-21T05:45:25;4.37;;;2.55;;
12181;SDS011;6154;51.550;12.138;2023-11-21T05:47:55;6.15;;;2.50;;
12181;SDS011;6154;51.550;12.138;2023-11-21T05:50:25;9.70;;;3.25;;
12181;SDS011;6154;51.550;12.138;2023-11-21T05:52:53;4.37;;;2.70;;
12181;SDS011;6154;51.550;12.138;2023-11-21T05:55:22;5.60;;;2.83;;
12181;SDS011;6154;51.550;12.138;2023-11-21T05:57:53;7.47;;;2.42;;
12181;SDS011;6154;51.550;12.138;2023-11-21T06:00:21;5.07;;;2.75;;
12181;SDS011;6154;51.550;12.138;2023-11-21T06:02:50;10.93;;;3.53;;
12181;SDS011;6154;51.550;12.138;2023-11-21T06:05:20;9.05;;;4.18;;
12181;SDS011;6154;51.550;12.138;2023-11-21T06:07:52;7.30;;;4.10;;
12181;SDS011;6154;51.550;12.138;2023-11-21T06:10:21;8.00;;;4.07;;
12181;SDS011;6154;51.550;12.138;2023-11-21T06:12:51;8.48;;;3.28;;
12181;SDS011;6154;51.550;12.138;2023-11-21T06:15:20;10.63;;;4.25;;
12181;SDS011;6154;51.550;12.138;2023-11-21T06:17:50;9.10;;;3.92;;
12181;SDS011;6154;51.550;12.138;2023-11-21T06:20:20;7.75;;;3.70;;
12181;SDS011;6154;51.550;12.138;2023-11-21T06:22:51;9.30;;;3.80;;
12181;SDS011;6154;51.550;12.138;2023-11-21T06:25:20;5.50;;;3.83;;
12181;SDS011;6154;51.550;12.138;2023-11-21T06:27:48;9.70;;;4.25;;
12181;SDS011;6154;51.550;12.138;2023-11-21T06:30:18;6.15;;;4.47;;
12181;SDS011;6154;51.550;12.138;2023-11-21T06:32:47;10.30;;;5.20;;
12181;SDS011;6154;51.550;12.138;2023-11-21T06:35:15;10.70;;;5.03;;
12181;SDS011;6154;51.550;12.138;2023-11-21T06:37:44;8.30;;;4.57;;
12181;SDS011;6154;51.550;12.138;2023-11-21T06:40:18;10.07;;;4.37;;
12181;SDS011;6154;51.550;12.138;2023-11-21T06:42:47;5.47;;;3.78;;
12181;SDS011;6154;51.550;12.138;2023-11-21T06:45:17;5.15;;;2.90;;
12181;SDS011;6154;51.550;12.138;2023-11-21T06:47:47;4.85;;;2.83;;
12181;SDS011;6154;51.550;12.138;2023-11-21T06:50:15;5.28;;;2.55;;
12181;SDS011;6154;51.550;12.138;2023-11-21T06:52:44;4.75;;;2.53;;
12181;SDS011;6154;51.550;12.138;2023-11-21T06:55:12;5.05;;;2.70;;
12181;SDS011;6154;51.550;12.138;2023-11-21T06:57:41;6.53;;;3.00;;
12181;SDS011;6154;51.550;12.138;2023-11-21T07:00:12;7.82;;;3.10;;
12181;SDS011;6154;51.550;12.138;2023-11-21T07:02:44;6.15;;;3.33;;
12181;SDS011;6154;51.550;12.138;2023-11-21T07:05:12;6.37;;;3.58;;
12181;SDS011;6154;51.550;12.138;2023-11-21T07:07:42;6.82;;;3.67;;
12181;SDS011;6154;51.550;12.138;2023-11-21T07:10:10;5.60;;;3.10;;
12181;SDS011;6154;51.550;12.138;2023-11-21T07:12:39;6.70;;;3.95;;
12181;SDS011;6154;51.550;12.138;2023-11-21T07:15:09;6.87;;;3.17;;
12181;SDS011;6154;51.550;12.138;2023-11-21T07:17:37;4.75;;;3.05;;
12181;SDS011;6154;51.550;12.138;2023-11-21T07:20:08;4.10;;;2.80;;
12181;SDS011;6154;51.550;12.138;2023-11-21T07:22:38;5.72;;;3.10;;
12181;SDS011;6154;51.550;12.138;2023-11-21T07:25:06;4.87;;;3.30;;
12181;SDS011;6154;51.550;12.138;2023-11-21T07:27:36;4.93;;;2.87;;
12181;SDS011;6154;51.550;12.138;2023-11-21T07:30:04;7.00;;;3.12;;
12181;SDS011;6154;51.550;12.138;2023-11-21T07:32:37;7.35;;;3.72;;
12181;SDS011;6154;51.550;12.138;2023-11-21T07:35:07;5.50;;;3.53;;
12181;SDS011;6154;51.550;12.138;2023-11-21T07:37:36;9.07;;;4.10;;
12181;SDS011;6154;51.550;12.138;2023-11-21T07:40:05;7.03;;;4.15;;
12181;SDS011;6154;51.550;12.138;2023-11-21T07:42:36;6.95;;;3.10;;
12181;SDS011;6154;51.550;12.138;2023-11-21T07:45:04;5.80;;;3.20;;
12181;SDS011;6154;51.550;12.138;2023-11-21T07:47:34;4.05;;;3.35;;
12181;SDS011;6154;51.550;12.138;2023-11-21T07:50:04;7.78;;;3.45;;
12181;SDS011;6154;51.550;12.138;2023-11-21T07:52:34;5.80;;;3.22;;
12181;SDS011;6154;51.550;12.138;2023-11-21T07:55:03;5.87;;;4.07;;
12181;SDS011;6154;51.550;12.138;2023-11-21T07:57:31;5.00;;;3.15;;
12181;SDS011;6154;51.550;12.138;2023-11-21T08:00:00;5.35;;;2.92;;
12181;SDS011;6154;51.550;12.138;2023-11-21T08:02:38;7.03;;;3.60;;
12181;SDS011;6154;51.550;12.138;2023-11-21T08:05:10;6.78;;;3.95;;
12181;SDS011;6154;51.550;12.138;2023-11-21T08:07:50;8.75;;;3.85;;
12181;SDS011;6154;51.550;12.138;2023-11-21T08:10:19;8.68;;;4.30;;
12181;SDS011;6154;51.550;12.138;2023-11-21T08:12:48;6.45;;;3.87;;
12181;SDS011;6154;51.550;12.138;2023-11-21T08:15:17;8.55;;;3.67;;
12181;SDS011;6154;51.550;12.138;2023-11-21T08:17:45;7.82;;;4.37;;
12181;SDS011;6154;51.550;12.138;2023-11-21T08:20:15;9.05;;;3.80;;
12181;SDS011;6154;51.550;12.138;2023-11-21T08:22:45;10.80;;;4.55;;
12181;SDS011;6154;51.550;12.138;2023-11-21T08:25:14;6.40;;;3.72;;
12181;SDS011;6154;51.550;12.138;2023-11-21T08:27:44;6.25;;;3.15;;
12181;SDS011;6154;51.550;12.138;2023-11-21T08:30:12;4.95;;;2.53;;
12181;SDS011;6154;51.550;12.138;2023-11-21T08:32:43;4.43;;;2.67;;
12181;SDS011;6154;51.550;12.138;2023-11-21T08:35:11;3.72;;;2.17;;
12181;SDS011;6154;51.550;12.138;2023-11-21T08:37:41;4.30;;;2.47;;
12181;SDS011;6154;51.550;12.138;2023-11-21T08:40:09;5.60;;;3.17;;
12181;SDS011;6154;51.550;12.138;2023-11-21T08:42:43;4.60;;;2.92;;
12181;SDS011;6154;51.550;12.138;2023-11-21T08:45:12;3.78;;;2.55;;
12181;SDS011;6154;51.550;12.138;2023-11-21T08:47:40;4.93;;;2.62;;
12181;SDS011;6154;51.550;12.138;2023-11-21T08:50:11;4.30;;;2.60;;
12181;SDS011;6154;51.550;12.138;2023-11-21T08:52:39;4.12;;;2.45;;
12181;SDS011;6154;51.550;12.138;2023-11-21T08:55:09;4.65;;;2.75;;
12181;SDS011;6154;51.550;12.138;2023-11-21T08:57:39;2.10;;;1.90;;
12181;SDS011;6154;51.550;12.138;2023-11-21T09:00:08;4.45;;;2.58;;
12181;SDS011;6154;51.550;12.138;2023-11-21T09:02:39;5.60;;;3.40;;
12181;SDS011;6154;51.550;12.138;2023-11-21T09:05:09;3.78;;;2.75;;
12181;SDS011;6154;51.550;12.138;2023-11-21T09:07:38;5.00;;;2.67;;
12181;SDS011;6154;51.550;12.138;2023-11-21T09:10:09;6.47;;;3.33;;
12181;SDS011;6154;51.550;12.138;2023-11-21T09:12:38;4.75;;;2.97;;
12181;SDS011;6154;51.550;12.138;2023-11-21T09:15:07;4.78;;;2.80;;
12181;SDS011;6154;51.550;12.138;2023-11-21T09:17:38;5.20;;;2.90;;
12181;SDS011;6154;51.550;12.138;2023-11-21T09:20:08;4.72;;;3.17;;
12181;SDS011;6154;51.550;12.138;2023-11-21T09:22:37;4.47;;;3.03;;
12181;SDS011;6154;51.550;12.138;2023-11-21T09:25:05;8.05;;;2.95;;
12181;SDS011;6154;51.550;12.138;2023-11-21T09:27:36;4.25;;;2.87;;
12181;SDS011;6154;51.550;12.138;2023-11-21T09:30:05;5.30;;;3.15;;
12181;SDS011;6154;51.550;12.138;2023-11-21T09:32:37;5.70;;;3.50;;
12181;SDS011;6154;51.550;12.138;2023-11-21T09:35:07;5.35;;;2.65;;
12181;SDS011;6154;51.550;12.138;2023-11-21T09:37:36;7.97;;;3.05;;
12181;SDS011;6154;51.550;12.138;2023-11-21T09:40:06;4.75;;;2.87;;
12181;SDS011;6154;51.550;12.138;2023-11-21T09:42:43;4.87;;;2.75;;
12181;SDS011;6154;51.550;12.138;2023-11-21T09:45:17;3.78;;;2.20;;
12181;SDS011;6154;51.550;12.138;2023-11-21T09:47:50;4.97;;;2.83;;
12181;SDS011;6154;51.550;12.138;2023-11-21T09:50:21;5.97;;;2.72;;
12181;SDS011;6154;51.550;12.138;2023-11-21T09:52:54;5.97;;;3.40;;
12181;SDS011;6154;51.550;12.138;2023-11-21T09:55:25;4.87;;;2.80;;
12181;SDS011;6154;51.550;12.138;2023-11-21T09:57:58;5.85;;;3.00;;
12181;SDS011;6154;51.550;12.138;2023-11-21T10:00:27;7.60;;;3.85;;
12181;SDS011;6154;51.550;12.138;2023-11-21T10:02:57;4.87;;;3.12;;
12181;SDS011;6154;51.550;12.138;2023-11-21T10:05:26;6.75;;;3.62;;
12181;SDS011;6154;51.550;12.138;2023-11-21T10:07:55;5.32;;;3.17;;
12181;SDS011;6154;51.550;12.138;2023-11-21T10:10:25;5.18;;;2.85;;
12181;SDS011;6154;51.550;12.138;2023-11-21T10:12:56;6.05;;;3.28;;
12181;SDS011;6154;51.550;12.138;2023-11-21T10:15:29;6.55;;;2.90;;
12181;SDS011;6154;51.550;12.138;2023-11-21T10:18:02;4.32;;;2.55;;
12181;SDS011;6154;51.550;12.138;2023-11-21T10:20:33;4.43;;;2.50;;
12181;SDS011;6154;51.550;12.138;2023-11-21T10:23:01;5.68;;;2.85;;
12181;SDS011;6154;51.550;12.138;2023-11-21T10:25:30;6.20;;;2.95;;
12181;SDS011;6154;51.550;12.138;2023-11-21T10:28:01;6.70;;;3.30;;
12181;SDS011;6154;51.550;12.138;2023-11-21T10:30:33;6.32;;;3.80;;
12181;SDS011;6154;51.550;12.138;2023-11-21T10:33:04;7.35;;;3.78;;
12181;SDS011;6154;51.550;12.138;2023-11-21T10:35:43;5.85;;;3.35;;
12181;SDS011;6154;51.550;12.138;2023-11-21T10:38:18;8.82;;;4.75;;
12181;SDS011;6154;51.550;12.138;2023-11-21T10:40:48;7.90;;;3.67;;
12181;SDS011;6154;51.550;12.138;2023-11-21T10:43:18;7.30;;;4.05;;
12181;SDS011;6154;51.550;12.138;2023-11-21T10:45:46;7.97;;;3.97;;
12181;SDS011;6154;51.550;12.138;2023-11-21T10:48:15;8.45;;;4.90;;
12181;SDS011;6154;51.550;12.138;2023-11-21T10:50:43;7.43;;;4.32;;
12181;SDS011;6154;51.550;12.138;2023-11-21T10:53:13;7.68;;;4.25;;
12181;SDS011;6154;51.550;12.138;2023-11-21T10:55:45;7.75;;;4.22;;
12181;SDS011;6154;51.550;12.138;2023-11-21T10:58:14;8.35;;;3.35;;
12181;SDS011;6154;51.550;12.138;2023-11-21T11:00:44;9.50;;;5.03;;
12181;SDS011;6154;51.550;12.138;2023-11-21T11:03:13;7.57;;;4.72;;
12181;SDS011;6154;51.550;12.138;2023-11-21T11:05:43;9.75;;;5.32;;
12181;SDS011;6154;51.550;12.138;2023-11-21T11:08:20;9.80;;;4.90;;
12181;SDS011;6154;51.550;12.138;2023-11-21T11:10:54;7.65;;;4.55;;
12181;SDS011;6154;51.550;12.138;2023-11-21T11:13:23;8.80;;;4.95;;
12181;SDS011;6154;51.550;12.138;2023-11-21T11:15:56;7.37;;;3.05;;
12181;SDS011;6154;51.550;12.138;2023-11-21T11:18:27;4.85;;;2.55;;
12181;SDS011;6154;51.550;12.138;2023-11-21T11:20:57;3.80;;;2.85;;
12181;SDS011;6154;51.550;12.138;2023-11-21T11:23:39;4.25;;;2.60;;
12181;SDS011;6154;51.550;12.138;2023-11-21T11:26:20;5.35;;;2.67;;
12181;SDS011;6154;51.550;12.138;2023-11-21T11:29:03;7.32;;;3.05;;
12181;SDS011;6154;51.550;12.138;2023-11-21T11:31:45;5.05;;;2.40;;
12181;SDS011;6154;51.550;12.138;2023-11-21T11:34:23;5.18;;;3.22;;
12181;SDS011;6154;51.550;12.138;2023-11-21T11:37:00;4.45;;;2.67;;
12181;SDS011;6154;51.550;12.138;2023-11-21T11:39:30;6.12;;;3.87;;
12181;SDS011;6154;51.550;12.138;2023-11-21T11:42:04;7.53;;;3.97;;
12181;SDS011;6154;51.550;12.138;2023-11-21T11:44:48;7.53;;;3.78;;
12181;SDS011;6154;51.550;12.138;2023-11-21T11:47:22;9.23;;;3.78;;
12181;SDS011;6154;51.550;12.138;2023-11-21T11:49:56;5.72;;;3.70;;
12181;SDS011;6154;51.550;12.138;2023-11-21T11:52:44;6.32;;;3.20;;
12181;SDS011;6154;51.550;12.138;2023-11-21T11:55:14;6.85;;;3.78;;
12181;SDS011;6154;51.550;12.138;2023-11-21T11:57:45;6.07;;;3.80;;
12181;SDS011;6154;51.550;12.138;2023-11-21T12:00:15;7.32;;;4.03;;
12181;SDS011;6154;51.550;12.138;2023-11-21T12:02:48;8.05;;;3.75;;
12181;SDS011;6154;51.550;12.138;2023-11-21T12:05:18;6.18;;;3.78;;
12181;SDS011;6154;51.550;12.138;2023-11-21T12:07:49;9.25;;;4.37;;
12181;SDS011;6154;51.550;12.138;2023-11-21T12:10:20;7.87;;;3.50;;
12181;SDS011;6154;51.550;12.138;2023-11-21T12:12:52;6.28;;;3.65;;
12181;SDS011;6154;51.550;12.138;2023-11-21T12:15:21;5.25;;;3.30;;
12181;SDS011;6154;51.550;12.138;2023-11-21T12:17:51;5.95;;;3.00;;
12181;SDS011;6154;51.550;12.138;2023-11-21T12:20:21;7.12;;;3.12;;
12181;SDS011;6154;51.550;12.138;2023-11-21T12:22:50;7.10;;;4.00;;
12181;SDS011;6154;51.550;12.138;2023-11-21T12:25:20;6.28;;;3.10;;
12181;SDS011;6154;51.550;12.138;2023-11-21T12:27:50;5.47;;;3.28;;
12181;SDS011;6154;51.550;12.138;2023-11-21T12:30:19;6.32;;;2.92;;
12181;SDS011;6154;51.550;12.138;2023-11-21T12:32:51;6.65;;;3.42;;
12181;SDS011;6154;51.550;12.138;2023-11-21T12:35:21;7.87;;;3.90;;
12181;SDS011;6154;51.550;12.138;2023-11-21T12:37:54;6.22;;;3.72;;
12181;SDS011;6154;51.550;12.138;2023-11-21T12:40:24;6.28;;;3.55;;
12181;SDS011;6154;51.550;12.138;2023-11-21T12:42:55;7.47;;;3.47;;
12181;SDS011;6154;51.550;12.138;2023-11-21T12:45:24;6.05;;;3.37;;
12181;SDS011;6154;51.550;12.138;2023-11-21T12:47:56;3.62;;;2.75;;
12181;SDS011;6154;51.550;12.138;2023-11-21T12:50:27;5.35;;;2.75;;
12181;SDS011;6154;51.550;12.138;2023-11-21T12:52:59;7.28;;;2.35;;
12181;SDS011;6154;51.550;12.138;2023-11-21T12:55:29;4.18;;;3.40;;
12181;SDS011;6154;51.550;12.138;2023-11-21T12:58:00;3.47;;;2.25;;
12181;SDS011;6154;51.550;12.138;2023-11-21T13:00:35;4.65;;;2.08;;
12181;SDS011;6154;51.550;12.138;2023-11-21T13:03:08;4.28;;;2.72;;
12181;SDS011;6154;51.550;12.138;2023-11-21T13:05:39;3.60;;;2.20;;
12181;SDS011;6154;51.550;12.138;2023-11-21T13:08:14;3.15;;;1.85;;
12181;SDS011;6154;51.550;12.138;2023-11-21T13:10:48;3.05;;;1.87;;
12181;SDS011;6154;51.550;12.138;2023-11-21T13:13:17;2.45;;;1.67;;
12181;SDS011;6154;51.550;12.138;2023-11-21T13:15:51;1.80;;;1.40;;
12181;SDS011;6154;51.550;12.138;2023-11-21T13:18:23;2.60;;;1.80;;
12181;SDS011;6154;51.550;12.138;2023-11-21T13:20:53;2.53;;;1.90;;
12181;SDS011;6154;51.550;12.138;2023-11-21T13:23:23;3.00;;;1.40;;
12181;SDS011;6154;51.550;12.138;2023-11-21T13:25:52;2.15;;;1.75;;
12181;SDS011;6154;51.550;12.138;2023-11-21T13:28:31;5.07;;;2.47;;
12181;SDS011;6154;51.550;12.138;2023-11-21T13:31:00;2.35;;;1.75;;
12181;SDS011;6154;51.550;12.138;2023-11-21T13:33:39;3.70;;;2.50;;
12181;SDS011;6154;51.550;12.138;2023-11-21T13:36:09;3.28;;;2.03;;
12181;SDS011;6154;51.550;12.138;2023-11-21T13:38:41;4.22;;;1.50;;
12181;SDS011;6154;51.550;12.138;2023-11-21T13:41:10;3.30;;;1.75;;
12181;SDS011;6154;51.550;12.138;2023-11-21T13:43:41;3.45;;;2.20;;
12181;SDS011;6154;51.550;12.138;2023-11-21T13:46:11;3.22;;;2.12;;
12181;SDS011;6154;51.550;12.138;2023-11-21T13:48:45;3.35;;;2.15;;
12181;SDS011;6154;51.550;12.138;2023-11-21T13:51:22;5.15;;;2.28;;
12181;SDS011;6154;51.550;12.138;2023-11-21T13:53:58;3.28;;;2.08;;
12181;SDS011;6154;51.550;12.138;2023-11-21T13:56:27;4.47;;;2.30;;
12181;SDS011;6154;51.550;12.138;2023-11-21T13:58:56;3.37;;;2.50;;
12181;SDS011;6154;51.550;12.138;2023-11-21T14:01:26;5.03;;;2.50;;
12181;SDS011;6154;51.550;12.138;2023-11-21T14:04:16;3.92;;;2.45;;
12181;SDS011;6154;51.550;12.138;2023-11-21T14:06:47;5.18;;;2.55;;
12181;SDS011;6154;51.550;12.138;2023-11-21T14:09:16;3.12;;;2.58;;
12181;SDS011;6154;51.550;12.138;2023-11-21T14:11:49;3.28;;;2.08;;
12181;SDS011;6154;51.550;12.138;2023-11-21T14:14:21;3.78;;;2.15;;
12181;SDS011;6154;51.550;12.138;2023-11-21T14:16:51;3.67;;;2.50;;
12181;SDS011;6154;51.550;12.138;2023-11-21T14:19:21;6.28;;;2.53;;
12181;SDS011;6154;51.550;12.138;2023-11-21T14:21:53;5.05;;;2.72;;
12181;SDS011;6154;51.550;12.138;2023-11-21T14:24:22;4.43;;;2.78;;
12181;SDS011;6154;51.550;12.138;2023-11-21T14:26:50;4.10;;;2.55;;
12181;SDS011;6154;51.550;12.138;2023-11-21T14:29:19;6.85;;;2.58;;
12181;SDS011;6154;51.550;12.138;2023-11-21T14:31:50;5.25;;;2.80;;
12181;SDS011;6154;51.550;12.138;2023-11-21T14:34:21;5.05;;;2.97;;
12181;SDS011;6154;51.550;12.138;2023-11-21T14:36:50;2.95;;;2.42;;
12181;SDS011;6154;51.550;12.138;2023-11-21T14:39:18;4.10;;;2.30;;
12181;SDS011;6154;51.550;12.138;2023-11-21T14:41:51;4.68;;;2.53;;
12181;SDS011;6154;51.550;12.138;2023-11-21T14:44:20;4.22;;;2.75;;
12181;SDS011;6154;51.550;12.138;2023-11-21T14:46:52;5.12;;;3.25;;
12181;SDS011;6154;51.550;12.138;2023-11-21T14:49:25;5.78;;;3.03;;
12181;SDS011;6154;51.550;12.138;2023-11-21T14:52:00;5.40;;;3.12;;
12181;SDS011;6154;51.550;12.138;2023-11-21T14:54:30;4.68;;;2.87;;
12181;SDS011;6154;51.550;12.138;2023-11-21T14:57:07;3.78;;;2.78;;
12181;SDS011;6154;51.550;12.138;2023-11-21T14:59:42;5.72;;;3.58;;
12181;SDS011;6154;51.550;12.138;2023-11-21T15:02:10;4.57;;;3.58;;
12181;SDS011;6154;51.550;12.138;2023-11-21T15:04:44;6.28;;;2.53;;
12181;SDS011;6154;51.550;12.138;2023-11-21T15:07:11;5.90;;;3.58;;